Time;durP1;ratioP1;P1;durP2;ratioP2;P2;SDS_P1;SDS_P2;PMS_P1;PMS_P2;Temp;Humidity;BMP_temperature;BMP_pressure;BME280_temperature;BME280_humidity;BME280_pressure;Samples;Min_cycle;Max_cycle;Signal;HPM_P1;HPM_P2
2021/05/08 00:00:31;;;;;;;9.38;8.27;;;4.50;99.90;;;;;;5067562;28;20243;-62
2021/05/08 00:02:57;;;;;;;8.77;7.97;;;4.50;99.90;;;;;;5067277;28;20233;-62
2021/05/08 00:05:24;;;;;;;9.88;7.65;;;4.50;99.90;;;;;;5066604;28;20296;-62
2021/05/08 00:07:50;;;;;;;9.70;8.75;;;4.50;99.90;;;;;;5067514;28;20204;-62
2021/05/08 00:10:17;;;;;;;9.00;8.10;;;4.50;99.90;;;;;;5067605;28;20208;-61
2021/05/08 00:12:45;;;;;;;10.60;9.60;;;4.40;99.90;;;;;;5078448;28;20283;-61
2021/05/08 00:15:18;;;;;;;9.98;9.00;;;4.40;99.90;;;;;;5086930;28;20210;-61
2021/05/08 00:17:45;;;;;;;10.85;9.75;;;4.20;99.90;;;;;;5087339;28;20213;-61
2021/05/08 00:20:14;;;;;;;10.02;9.10;;;4.20;99.90;;;;;;5087646;28;20224;-61
2021/05/08 00:22:41;;;;;;;10.35;9.43;;;4.00;99.90;;;;;;5087646;28;20204;-61
2021/05/08 00:25:09;;;;;;;11.15;10.00;;;4.10;99.90;;;;;;5086241;28;20200;-61
2021/05/08 00:27:36;;;;;;;11.88;10.65;;;4.10;99.90;;;;;;5086601;28;20566;-61
2021/05/08 00:30:05;;;;;;;10.13;9.02;;;4.00;99.90;;;;;;5075359;28;20296;-61
2021/05/08 00:32:31;;;;;;;11.13;9.75;;;3.90;99.90;;;;;;5067000;28;20307;-61
2021/05/08 00:34:57;;;;;;;10.73;9.63;;;3.90;99.90;;;;;;5066415;28;20207;-61
2021/05/08 00:37:24;;;;;;;10.00;9.00;;;3.80;99.90;;;;;;5066815;28;20211;-62
2021/05/08 00:39:51;;;;;;;12.35;10.00;;;3.80;99.90;;;;;;5070618;28;20241;-61
2021/05/08 00:42:17;;;;;;;10.85;9.75;;;3.90;99.90;;;;;;5087222;28;20608;-61
2021/05/08 00:44:43;;;;;;;10.88;9.63;;;3.90;99.90;;;;;;5085720;28;20218;-62
2021/05/08 00:47:11;;;;;;;11.48;10.20;;;3.90;99.90;;;;;;5074587;28;20271;-61
2021/05/08 00:49:38;;;;;;;10.30;9.30;;;3.80;99.90;;;;;;5067081;28;20243;-61
2021/05/08 00:52:05;;;;;;;11.15;9.82;;;3.80;99.90;;;;;;5066269;28;20292;-61
2021/05/08 00:54:32;;;;;;;11.10;10.07;;;3.70;99.90;;;;;;5076715;28;20219;-61
2021/05/08 00:57:00;;;;;;;12.50;9.60;;;3.70;99.90;;;;;;5086924;28;20287;-61
2021/05/08 00:59:27;;;;;;;10.65;9.50;;;3.70;99.90;;;;;;5086521;28;20703;-61
2021/05/08 01:01:53;;;;;;;9.98;8.95;;;3.70;99.90;;;;;;5087126;28;20239;-61
2021/05/08 01:04:20;;;;;;;12.00;9.68;;;3.80;99.90;;;;;;5072542;28;20332;-61
2021/05/08 01:06:46;;;;;;;10.45;9.35;;;3.70;99.90;;;;;;5066250;28;20299;-61
2021/05/08 01:09:13;;;;;;;9.70;8.70;;;3.70;99.90;;;;;;5066908;28;20254;-61
2021/05/08 01:11:39;;;;;;;11.18;9.90;;;3.70;99.90;;;;;;5066683;28;20209;-61
2021/05/08 01:14:06;;;;;;;12.07;10.85;;;3.50;99.90;;;;;;5065903;28;20201;-62
2021/05/08 01:16:33;;;;;;;12.93;9.80;;;3.40;99.90;;;;;;5065856;28;20942;-62
2021/05/08 01:18:59;;;;;;;11.32;9.40;;;3.30;99.90;;;;;;5066123;28;20295;-61
2021/05/08 01:21:27;;;;;;;10.60;9.60;;;3.20;99.90;;;;;;5066728;28;20240;-61
2021/05/08 01:23:53;;;;;;;11.23;10.07;;;3.40;99.90;;;;;;5066635;28;20284;-62
2021/05/08 01:26:20;;;;;;;11.20;10.00;;;3.30;99.90;;;;;;5066357;28;20212;-61
2021/05/08 01:28:46;;;;;;;14.45;10.00;;;3.20;99.90;;;;;;5065809;28;20282;-61
2021/05/08 01:31:13;;;;;;;11.77;10.07;;;3.10;99.90;;;;;;5066876;28;20273;-61
2021/05/08 01:33:40;;;;;;;10.75;9.75;;;3.20;99.90;;;;;;5066293;28;20616;-62
2021/05/08 01:36:07;;;;;;;10.95;9.85;;;3.20;99.90;;;;;;5065732;28;20216;-61
2021/05/08 01:38:34;;;;;;;10.70;9.23;;;3.30;99.90;;;;;;5081152;28;20257;-62
2021/05/08 01:41:03;;;;;;;11.13;10.13;;;3.30;99.90;;;;;;5088440;28;20331;-61
2021/05/08 01:43:29;;;;;;;10.43;9.32;;;3.30;99.90;;;;;;5090846;28;20576;-61
2021/05/08 01:45:56;;;;;;;11.95;10.02;;;3.30;99.90;;;;;;5088131;28;21056;-60
2021/05/08 01:48:22;;;;;;;11.32;10.13;;;3.20;99.90;;;;;;5090505;28;20249;-61
2021/05/08 01:50:49;;;;;;;11.80;10.60;;;3.10;99.90;;;;;;5089821;28;20677;-62
2021/05/08 01:53:16;;;;;;;13.10;10.55;;;3.00;99.90;;;;;;5071497;28;20250;-61
2021/05/08 01:55:43;;;;;;;11.15;10.15;;;2.90;99.90;;;;;;5085579;28;20539;-62
2021/05/08 01:58:10;;;;;;;11.23;10.13;;;2.90;99.90;;;;;;5081748;28;20630;-61
2021/05/08 02:00:38;;;;;;;11.88;10.40;;;2.90;99.90;;;;;;5069703;28;20229;-61
2021/05/08 02:03:05;;;;;;;11.65;10.55;;;2.80;99.90;;;;;;5069327;28;20201;-61
2021/05/08 02:05:33;;;;;;;11.80;10.07;;;2.80;99.90;;;;;;5069206;28;20212;-61
2021/05/08 02:08:02;;;;;;;12.20;10.98;;;2.80;99.90;;;;;;5076871;28;20208;-61
2021/05/08 02:10:29;;;;;;;10.95;9.40;;;2.80;99.90;;;;;;5090215;28;20216;-62
2021/05/08 02:12:57;;;;;;;11.90;10.07;;;2.80;99.90;;;;;;5070954;28;20209;-61
2021/05/08 02:15:23;;;;;;;10.52;9.43;;;2.80;99.90;;;;;;5068021;28;20573;-61
2021/05/08 02:17:50;;;;;;;18.73;10.40;;;2.90;99.90;;;;;;5069424;28;20250;-61
2021/05/08 02:20:21;;;;;;;13.05;9.55;;;3.00;99.90;;;;;;5074129;28;20239;-61
2021/05/08 02:22:48;;;;;;;11.27;10.05;;;3.00;99.90;;;;;;5088122;28;20204;-62
2021/05/08 02:25:15;;;;;;;10.35;9.35;;;2.90;99.90;;;;;;5088556;28;20205;-61
2021/05/08 02:27:42;;;;;;;9.80;8.80;;;2.80;99.90;;;;;;5089014;28;20197;-61
2021/05/08 02:30:11;;;;;;;10.85;9.75;;;2.80;99.90;;;;;;5069638;28;20223;-61
2021/05/08 02:32:38;;;;;;;10.80;9.73;;;2.80;99.90;;;;;;5068736;28;20201;-61
2021/05/08 02:35:06;;;;;;;11.48;10.35;;;2.80;99.90;;;;;;5068754;28;20262;-61
2021/05/08 02:37:33;;;;;;;11.55;9.68;;;2.80;99.90;;;;;;5069246;28;20842;-61
2021/05/08 02:40:00;;;;;;;13.63;10.55;;;2.70;99.90;;;;;;5079364;28;20204;-62
2021/05/08 02:42:26;;;;;;;10.73;9.18;;;2.70;99.90;;;;;;5089464;28;20752;-61
2021/05/08 02:44:52;;;;;;;12.30;10.05;;;2.70;99.90;;;;;;5087505;28;20279;-61
2021/05/08 02:47:20;;;;;;;11.43;9.85;;;2.60;99.90;;;;;;5069159;28;20304;-61
2021/05/08 02:49:46;;;;;;;11.75;10.20;;;2.60;99.90;;;;;;5069415;28;20197;-61
2021/05/08 02:52:13;;;;;;;10.38;9.23;;;2.50;99.90;;;;;;5072938;28;20316;-61
2021/05/08 02:54:39;;;;;;;19.52;10.88;;;2.40;99.90;;;;;;5088807;28;20658;-61
2021/05/08 02:57:06;;;;;;;11.60;10.40;;;2.40;99.90;;;;;;5089130;28;20751;-61
2021/05/08 02:59:33;;;;;;;12.00;10.80;;;2.50;99.90;;;;;;5088907;28;20204;-61
2021/05/08 03:02:00;;;;;;;13.27;9.55;;;2.40;99.90;;;;;;5086446;28;20631;-61
2021/05/08 03:04:27;;;;;;;11.52;10.30;;;2.50;99.90;;;;;;5068691;28;20205;-62
2021/05/08 03:06:54;;;;;;;11.38;10.27;;;2.50;99.90;;;;;;5072671;28;20674;-62
2021/05/08 03:09:20;;;;;;;11.90;10.60;;;2.50;99.90;;;;;;5088295;28;20295;-62
2021/05/08 03:11:46;;;;;;;10.82;9.82;;;2.50;99.90;;;;;;5089113;28;20300;-62
2021/05/08 03:14:13;;;;;;;11.43;10.02;;;2.50;99.90;;;;;;5088443;28;20235;-61
2021/05/08 03:16:41;;;;;;;16.20;10.75;;;2.60;99.90;;;;;;5088689;28;20223;-62
2021/05/08 03:19:07;;;;;;;12.48;10.02;;;2.60;99.90;;;;;;5085542;28;20394;-61
2021/05/08 03:21:35;;;;;;;13.18;10.25;;;2.60;99.90;;;;;;5083329;28;20326;-61
2021/05/08 03:24:03;;;;;;;12.10;9.93;;;2.60;99.90;;;;;;5087238;28;20291;-62
2021/05/08 03:26:30;;;;;;;12.60;10.70;;;2.50;99.90;;;;;;5088811;28;20196;-62
2021/05/08 03:28:56;;;;;;;10.60;9.50;;;2.50;99.90;;;;;;5088193;28;20249;-62
2021/05/08 03:31:23;;;;;;;13.10;11.10;;;2.50;99.90;;;;;;5088574;28;20196;-61
2021/05/08 03:33:49;;;;;;;19.02;10.88;;;2.60;99.90;;;;;;5088711;28;20204;-62
2021/05/08 03:36:16;;;;;;;17.38;10.18;;;2.60;99.90;;;;;;5074695;28;20204;-61
2021/05/08 03:38:43;;;;;;;11.52;10.43;;;2.70;99.90;;;;;;5088306;28;20204;-61
2021/05/08 03:41:09;;;;;;;12.20;10.90;;;2.80;99.90;;;;;;5088517;28;20293;-62
2021/05/08 03:43:36;;;;;;;11.90;10.20;;;2.90;99.90;;;;;;5088359;28;20204;-62
2021/05/08 03:46:02;;;;;;;13.38;10.00;;;2.90;99.90;;;;;;5086957;28;20410;-61
2021/05/08 03:48:28;;;;;;;11.32;10.18;;;2.90;99.90;;;;;;5088438;28;20253;-62
2021/05/08 03:50:55;;;;;;;12.95;11.05;;;2.80;99.90;;;;;;5087609;28;20666;-62
2021/05/08 03:53:23;;;;;;;11.77;10.05;;;2.90;99.90;;;;;;5083019;28;20213;-62
2021/05/08 03:55:51;;;;;;;12.05;10.85;;;2.90;99.90;;;;;;5066785;28;20276;-62
2021/05/08 03:58:20;;;;;;;11.60;10.15;;;3.00;99.90;;;;;;5067012;28;20277;-62
2021/05/08 04:00:46;;;;;;;11.85;10.57;;;3.00;99.90;;;;;;5067624;28;20257;-62
2021/05/08 04:03:12;;;;;;;15.15;10.68;;;3.00;99.90;;;;;;5067210;28;20296;-62
2021/05/08 04:05:39;;;;;;;14.35;10.80;;;3.10;99.90;;;;;;5066613;28;20278;-62
2021/05/08 04:08:05;;;;;;;13.32;9.50;;;3.20;99.90;;;;;;5067324;28;20208;-62
2021/05/08 04:10:32;;;;;;;9.88;8.50;;;3.30;99.90;;;;;;5074052;28;20265;-62
2021/05/08 04:12:59;;;;;;;13.07;10.80;;;3.40;99.90;;;;;;5087067;28;20907;-63
2021/05/08 04:15:26;;;;;;;11.05;9.95;;;3.50;99.90;;;;;;5087054;28;20299;-62
2021/05/08 04:17:52;;;;;;;11.27;9.23;;;3.60;99.90;;;;;;5088231;28;20224;-62
2021/05/08 04:20:18;;;;;;;15.00;10.43;;;3.70;99.90;;;;;;5087225;28;20228;-62
2021/05/08 04:22:45;;;;;;;11.48;9.70;;;3.90;99.90;;;;;;5087350;28;20205;-62
2021/05/08 04:25:12;;;;;;;12.00;9.80;;;4.00;99.90;;;;;;5085088;28;20196;-61
2021/05/08 04:27:38;;;;;;;11.52;10.00;;;4.20;99.90;;;;;;5079892;28;20209;-62
2021/05/08 04:30:08;;;;;;;11.52;9.77;;;4.30;99.90;;;;;;5067079;28;20204;-62
2021/05/08 04:32:34;;;;;;;9.98;9.00;;;4.40;99.90;;;;;;5067451;28;20324;-62
2021/05/08 04:35:00;;;;;;;10.48;9.45;;;4.70;99.90;;;;;;5074777;28;20248;-62
2021/05/08 04:37:27;;;;;;;10.77;9.75;;;5.20;99.90;;;;;;5077613;28;20203;-61
2021/05/08 04:39:53;;;;;;;11.45;10.15;;;5.70;99.90;;;;;;5087364;28;20685;-61
2021/05/08 04:42:20;;;;;;;10.98;9.35;;;6.00;99.90;;;;;;5069093;28;20229;-62
2021/05/08 04:44:46;;;;;;;10.02;8.50;;;6.50;99.90;;;;;;5074090;28;20212;-62
2021/05/08 04:47:14;;;;;;;9.80;8.63;;;6.80;99.60;;;;;;5085731;28;20265;-63
2021/05/08 04:49:40;;;;;;;8.38;7.55;;;7.40;99.10;;;;;;5086779;28;20200;-62
2021/05/08 04:52:07;;;;;;;9.48;8.52;;;7.90;97.10;;;;;;5086747;28;20696;-63
2021/05/08 04:54:33;;;;;;;8.63;7.82;;;8.50;96.10;;;;;;5085013;28;20890;-62
2021/05/08 04:56:59;;;;;;;8.65;7.75;;;9.10;94.30;;;;;;5086004;28;20758;-62
2021/05/08 04:59:26;;;;;;;9.55;7.78;;;9.40;92.70;;;;;;5087102;28;20200;-62
2021/05/08 05:01:52;;;;;;;9.18;7.85;;;9.40;92.30;;;;;;5075405;28;20236;-62
2021/05/08 05:04:19;;;;;;;8.60;7.80;;;10.10;91.30;;;;;;5066168;28;20235;-63
2021/05/08 05:06:45;;;;;;;8.15;7.38;;;11.20;89.10;;;;;;5066128;28;20207;-63
2021/05/08 05:09:12;;;;;;;8.85;8.00;;;12.00;84.80;;;;;;5066528;28;20205;-62
2021/05/08 05:11:38;;;;;;;9.20;8.30;;;12.50;81.90;;;;;;5066955;28;20209;-63
2021/05/08 05:14:05;;;;;;;8.98;8.18;;;13.10;80.40;;;;;;5067201;28;20239;-63
2021/05/08 05:16:32;;;;;;;8.52;7.78;;;12.60;79.00;;;;;;5075140;28;20208;-63
2021/05/08 05:18:58;;;;;;;8.07;7.38;;;13.10;77.80;;;;;;5089145;28;20212;-61
2021/05/08 05:21:25;;;;;;;7.85;7.15;;;13.50;75.80;;;;;;5090169;28;20220;-61
2021/05/08 05:23:52;;;;;;;8.15;7.25;;;13.80;75.20;;;;;;5088378;28;20931;-62
2021/05/08 05:26:18;;;;;;;7.25;6.65;;;13.80;74.20;;;;;;5089867;28;20742;-62
2021/05/08 05:28:44;;;;;;;8.07;7.22;;;15.00;71.50;;;;;;5090896;28;20216;-61
2021/05/08 05:31:10;;;;;;;8.15;7.45;;;15.30;69.60;;;;;;5073143;28;20201;-62
2021/05/08 05:33:37;;;;;;;8.00;7.30;;;15.50;69.30;;;;;;5069631;28;20670;-61
2021/05/08 05:36:04;;;;;;;8.57;7.67;;;16.30;67.40;;;;;;5069533;28;20658;-63
2021/05/08 05:38:31;;;;;;;8.07;7.30;;;16.40;67.80;;;;;;5069916;28;20653;-63
2021/05/08 05:40:57;;;;;;;8.73;7.90;;;17.30;65.00;;;;;;5071002;28;20693;-63
2021/05/08 05:43:24;;;;;;;7.97;7.17;;;17.50;62.20;;;;;;5066896;28;20647;-63
2021/05/08 05:45:50;;;;;;;8.60;7.90;;;17.80;61.40;;;;;;5088220;28;20630;-63
2021/05/08 05:48:16;;;;;;;7.90;7.30;;;18.00;60.00;;;;;;5094894;28;20633;-63
2021/05/08 05:50:44;;;;;;;9.03;8.17;;;18.00;60.40;;;;;;5087566;28;21375;-62
2021/05/08 05:53:10;;;;;;;7.97;7.33;;;17.50;59.50;;;;;;5087433;28;20622;-62
2021/05/08 05:55:38;;;;;;;7.73;7.13;;;17.60;60.40;;;;;;5083005;28;20651;-67
2021/05/08 05:58:04;;;;;;;8.93;8.10;;;17.50;60.60;;;;;;5077734;28;20644;-66
2021/05/08 06:00:30;;;;;;;7.97;7.27;;;17.90;59.20;;;;;;5085757;28;20701;-66
2021/05/08 06:02:57;;;;;;;7.27;6.67;;;17.70;59.10;;;;;;5080989;28;20633;-67
2021/05/08 06:05:23;;;;;;;7.73;7.07;;;17.60;59.50;;;;;;5087246;28;20725;-67
2021/05/08 06:07:49;;;;;;;8.53;7.73;;;17.30;60.10;;;;;;5088556;28;21203;-65
2021/05/08 06:10:16;;;;;;;7.77;7.17;;;18.30;58.20;;;;;;5081793;28;20635;-65
2021/05/08 06:12:43;;;;;;;8.67;7.87;;;18.20;58.30;;;;;;5086710;28;20719;-65
2021/05/08 06:15:11;;;;;;;7.83;7.23;;;18.00;58.60;;;;;;5088179;28;20725;-65
2021/05/08 06:17:38;;;;;;;7.70;7.10;;;17.30;59.60;;;;;;5084670;28;20633;-65
2021/05/08 06:20:05;;;;;;;8.20;7.50;;;18.20;59.20;;;;;;5088546;28;20737;-65
2021/05/08 06:22:32;;;;;;;8.80;7.90;;;18.40;58.30;;;;;;5087749;28;21352;-65
2021/05/08 06:24:58;;;;;;;7.40;6.90;;;18.00;58.80;;;;;;5088575;28;20676;-65
2021/05/08 06:27:25;;;;;;;7.47;6.77;;;19.20;58.00;;;;;;5084889;28;20648;-64
2021/05/08 06:29:52;;;;;;;7.53;6.90;;;19.70;55.80;;;;;;5087165;28;20688;-65
2021/05/08 06:32:20;;;;;;;8.07;7.27;;;20.10;55.50;;;;;;5081793;28;20661;-65
2021/05/08 06:34:48;;;;;;;8.57;7.87;;;19.90;56.40;;;;;;5085334;28;20740;-65
2021/05/08 06:37:15;;;;;;;8.30;7.60;;;19.90;54.60;;;;;;5094489;28;20668;-65
2021/05/08 06:39:41;;;;;;;8.10;7.50;;;19.40;56.50;;;;;;5088484;28;20626;-65
2021/05/08 06:42:09;;;;;;;8.70;7.90;;;19.90;55.30;;;;;;5086836;28;21275;-65
2021/05/08 06:44:36;;;;;;;8.20;7.60;;;19.30;56.90;;;;;;5086182;28;20642;-65
2021/05/08 06:47:03;;;;;;;8.43;7.57;;;20.00;54.20;;;;;;5086711;28;21057;-65
2021/05/08 06:49:30;;;;;;;8.00;7.40;;;18.90;55.20;;;;;;5086726;28;20633;-65
2021/05/08 06:51:56;;;;;;;8.97;8.27;;;19.00;56.30;;;;;;5079176;28;21531;-65
2021/05/08 06:54:23;;;;;;;7.67;7.07;;;19.50;55.50;;;;;;5082712;28;20600;-65
2021/05/08 06:56:49;;;;;;;6.53;6.13;;;20.60;54.10;;;;;;5083452;28;21231;-65
2021/05/08 06:59:15;;;;;;;6.73;6.27;;;22.30;52.10;;;;;;5072784;28;20655;-65
2021/05/08 07:01:42;;;;;;;8.23;7.63;;;23.30;50.00;;;;;;5075756;28;20641;-65
2021/05/08 07:04:09;;;;;;;7.53;7.03;;;22.40;49.60;;;;;;5081979;28;20775;-65
2021/05/08 07:06:35;;;;;;;6.93;6.43;;;22.40;50.90;;;;;;5084253;28;20642;-65
2021/05/08 07:09:02;;;;;;;9.67;8.77;;;22.40;50.60;;;;;;5082695;28;20664;-65
2021/05/08 07:11:28;;;;;;;9.60;8.70;;;22.40;50.60;;;;;;5083971;28;20644;-65
2021/05/08 07:13:55;;;;;;;9.10;8.30;;;21.60;51.10;;;;;;5080655;28;20629;-65
2021/05/08 07:16:21;;;;;;;8.77;8.07;;;22.60;50.80;;;;;;5083594;28;20692;-65
2021/05/08 07:18:47;;;;;;;8.40;7.60;;;21.90;49.30;;;;;;5084120;28;20606;-65
2021/05/08 07:21:15;;;;;;;7.53;7.00;;;21.20;51.10;;;;;;5085891;28;20735;-66
2021/05/08 07:23:41;;;;;;;6.57;6.07;;;19.90;52.30;;;;;;5079687;28;20634;-65
2021/05/08 07:26:08;;;;;;;8.10;7.30;;;19.60;54.40;;;;;;5084336;28;21248;-65
2021/05/08 07:28:34;;;;;;;6.83;6.23;;;20.20;53.30;;;;;;5086950;28;20641;-65
2021/05/08 07:31:00;;;;;;;7.37;6.70;;;19.90;54.70;;;;;;5083367;28;20596;-65
2021/05/08 07:33:27;;;;;;;7.13;6.60;;;20.70;52.70;;;;;;5083820;28;20631;-65
2021/05/08 07:35:53;;;;;;;6.07;5.57;;;21.90;51.40;;;;;;5082832;28;20615;-65
2021/05/08 07:38:21;;;;;;;6.40;5.90;;;22.40;50.70;;;;;;5077417;28;21027;-65
2021/05/08 07:40:50;;;;;;;6.10;5.67;;;22.60;50.50;;;;;;5083885;28;20698;-65
2021/05/08 07:43:18;;;;;;;6.03;5.53;;;23.20;49.80;;;;;;5081212;28;20730;-65
2021/05/08 07:45:44;;;;;;;7.70;7.20;;;21.50;51.80;;;;;;5083771;28;21002;-65
2021/05/08 07:48:10;;;;;;;7.37;6.70;;;20.70;54.30;;;;;;5082471;28;20758;-65
2021/05/08 07:50:37;;;;;;;5.40;5.03;;;20.10;55.90;;;;;;5079340;28;21274;-65
2021/05/08 07:53:04;;;;;;;7.83;7.27;;;20.60;53.10;;;;;;5085368;28;20633;-65
2021/05/08 07:55:31;;;;;;;7.43;6.83;;;19.70;54.80;;;;;;5081449;28;20605;-65
2021/05/08 07:57:58;;;;;;;7.03;6.43;;;19.00;57.40;;;;;;5087323;28;20631;-65
2021/05/08 08:00:24;;;;;;;7.40;6.80;;;18.80;58.00;;;;;;5089223;28;20702;-65
2021/05/08 08:02:51;;;;;;;7.33;6.73;;;18.00;59.00;;;;;;5085443;28;20632;-64
2021/05/08 08:05:19;;;;;;;6.30;5.80;;;18.10;59.60;;;;;;5083483;28;20628;-65
2021/05/08 08:07:45;;;;;;;6.90;6.40;;;17.30;60.80;;;;;;5080192;28;20645;-65
2021/05/08 08:10:12;;;;;;;6.03;5.60;;;17.30;61.80;;;;;;5078364;28;20657;-65
2021/05/08 08:12:41;;;;;;;7.33;6.70;;;16.90;61.80;;;;;;5085313;28;20647;-65
2021/05/08 08:15:09;;;;;;;7.10;6.40;;;16.80;64.80;;;;;;5081289;28;20635;-65
2021/05/08 08:17:36;;;;;;;6.17;5.67;;;16.80;63.50;;;;;;5085305;28;20717;-65
2021/05/08 08:20:04;;;;;;;5.93;5.43;;;17.30;62.50;;;;;;5093856;28;20673;-65
2021/05/08 08:22:30;;;;;;;6.67;6.10;;;17.10;62.10;;;;;;5096920;28;20715;-65
2021/05/08 08:24:57;;;;;;;6.37;5.87;;;17.10;64.70;;;;;;5083584;28;20737;-65
2021/05/08 08:27:24;;;;;;;6.90;6.30;;;17.40;63.70;;;;;;5088724;28;20635;-65
2021/05/08 08:29:52;;;;;;;6.30;5.30;;;16.80;63.00;;;;;;5085519;28;20771;-65
2021/05/08 08:32:19;;;;;;;6.60;6.00;;;16.50;64.50;;;;;;5084393;28;20686;-65
2021/05/08 08:34:45;;;;;;;6.00;5.50;;;16.00;65.80;;;;;;5087051;28;20619;-66
2021/05/08 08:37:11;;;;;;;6.67;6.17;;;15.80;67.10;;;;;;5077948;28;20619;-65
2021/05/08 08:39:38;;;;;;;5.35;4.95;;;15.70;68.60;;;;;;5084214;28;20800;-65
2021/05/08 08:42:07;;;;;;;5.20;4.70;;;15.40;67.30;;;;;;5085212;28;20247;-65
2021/05/08 08:44:33;;;;;;;5.43;4.93;;;16.00;66.70;;;;;;5081992;28;20721;-66
2021/05/08 08:47:01;;;;;;;5.00;4.60;;;17.30;65.10;;;;;;5076820;28;21015;-66
2021/05/08 08:49:27;;;;;;;5.00;4.60;;;18.60;61.30;;;;;;5082978;28;20630;-66
2021/05/08 08:51:53;;;;;;;5.13;4.70;;;20.00;56.60;;;;;;5078377;28;20635;-65
2021/05/08 08:54:20;;;;;;;4.43;4.07;;;19.70;60.10;;;;;;5088296;28;20665;-66
2021/05/08 08:56:47;;;;;;;4.00;3.70;;;20.20;57.90;;;;;;5081756;28;20634;-66
2021/05/08 08:59:18;;;;;;;5.03;4.47;;;20.80;59.30;;;;;;5083590;28;20731;-66
2021/05/08 09:01:46;;;;;;;4.77;4.33;;;21.30;53.80;;;;;;5086091;28;20680;-66
2021/05/08 09:04:13;;;;;;;4.60;4.30;;;21.30;54.20;;;;;;5085086;28;20635;-65
2021/05/08 09:06:40;;;;;;;4.20;4.00;;;22.10;51.70;;;;;;5083312;28;20616;-66
2021/05/08 09:09:09;;;;;;;4.07;3.77;;;21.60;50.90;;;;;;5085900;28;20639;-65
2021/05/08 09:11:46;;;;;;;3.97;3.67;;;22.00;52.80;;;;;;5087891;28;20676;-65
2021/05/08 09:14:20;;;;;;;3.13;2.93;;;21.90;53.50;;;;;;5076987;28;21218;-65
2021/05/08 09:17:05;;;;;;;2.40;2.30;;;21.20;51.70;;;;;;5082493;28;21186;-65
2021/05/08 09:19:33;;;;;;;3.00;2.90;;;20.30;49.70;;;;;;5081168;28;20642;-65
2021/05/08 09:22:27;;;;;;;3.23;3.00;;;20.20;51.00;;;;;;5091820;28;20688;-65
2021/05/08 09:24:55;;;;;;;3.87;3.30;;;19.80;50.20;;;;;;5081060;28;20730;-64
2021/05/08 09:27:42;;;;;;;3.00;2.80;;;19.30;51.60;;;;;;5078755;28;20650;-65
2021/05/08 09:30:13;;;;;;;2.77;2.57;;;19.00;53.30;;;;;;5069577;28;20699;-65
2021/05/08 09:32:41;;;;;;;2.83;2.63;;;18.50;55.60;;;;;;5084114;28;20669;-64
2021/05/08 09:35:13;;;;;;;3.70;2.77;;;19.00;54.00;;;;;;5066042;28;21203;-64
2021/05/08 09:37:40;;;;;;;3.23;3.03;;;18.90;54.20;;;;;;5072008;28;20638;-64
2021/05/08 09:40:18;;;;;;;2.73;2.53;;;18.40;53.60;;;;;;5071878;28;20721;-63
2021/05/08 09:42:46;;;;;;;2.57;2.40;;;18.70;54.00;;;;;;5078244;28;20776;-64
2021/05/08 09:45:14;;;;;;;2.87;2.67;;;18.60;56.10;;;;;;5082150;28;20648;-63
2021/05/08 09:47:40;;;;;;;2.77;2.57;;;18.80;55.10;;;;;;5084618;28;20638;-64
2021/05/08 09:50:08;;;;;;;3.40;2.50;;;19.40;55.60;;;;;;5083864;28;20626;-64
2021/05/08 09:52:49;;;;;;;1.97;1.87;;;19.60;55.70;;;;;;5083579;28;21339;-63
2021/05/08 09:55:16;;;;;;;2.30;2.20;;;19.50;54.70;;;;;;5081406;28;20633;-64
2021/05/08 09:57:56;;;;;;;3.27;2.33;;;19.10;54.00;;;;;;5086821;28;20634;-64
2021/05/08 10:00:30;;;;;;;2.40;2.30;;;19.40;54.70;;;;;;5079119;28;20630;-63
2021/05/08 10:03:09;;;;;;;2.57;2.37;;;19.20;54.20;;;;;;5081214;28;20733;-63
2021/05/08 10:05:37;;;;;;;2.60;2.40;;;19.20;54.40;;;;;;5093776;28;20638;-64
2021/05/08 10:08:04;;;;;;;2.57;2.37;;;19.20;55.60;;;;;;5100667;28;21021;-64
2021/05/08 10:10:30;;;;;;;2.37;2.27;;;19.20;56.00;;;;;;5094962;28;20629;-63
2021/05/08 10:12:57;;;;;;;2.50;2.30;;;19.60;54.70;;;;;;5091294;28;20634;-63
2021/05/08 10:15:24;;;;;;;2.87;2.67;;;20.50;53.70;;;;;;5090251;28;21190;-63
2021/05/08 10:17:51;;;;;;;2.70;2.20;;;21.00;52.00;;;;;;5088139;28;20740;-63
2021/05/08 10:20:19;;;;;;;2.53;2.43;;;21.60;52.90;;;;;;5094611;28;20650;-63
2021/05/08 10:22:49;;;;;;;2.13;2.03;;;21.40;51.90;;;;;;5094303;28;20680;-63
2021/05/08 10:25:16;;;;;;;2.73;2.53;;;21.30;51.20;;;;;;5083467;28;20666;-63
2021/05/08 10:27:43;;;;;;;3.20;2.90;;;20.90;51.70;;;;;;5085924;28;21360;-64
2021/05/08 10:30:12;;;;;;;2.17;2.07;;;20.60;51.90;;;;;;5088366;28;21044;-63
2021/05/08 10:32:40;;;;;;;2.60;2.40;;;20.50;55.30;;;;;;5084664;28;21038;-63
2021/05/08 10:35:07;;;;;;;2.50;2.40;;;20.80;55.10;;;;;;5090699;28;20997;-64
2021/05/08 10:37:33;;;;;;;2.80;2.60;;;20.40;54.50;;;;;;5084266;28;20634;-64
2021/05/08 10:40:14;;;;;;;2.23;2.13;;;20.30;55.40;;;;;;5086142;28;20644;-63
2021/05/08 10:42:42;;;;;;;2.70;2.50;;;20.40;52.00;;;;;;5081826;28;20752;-63
2021/05/08 10:45:31;;;;;;;2.57;2.37;;;20.80;51.60;;;;;;5083367;28;20649;-64
2021/05/08 10:48:11;;;;;;;2.40;2.30;;;20.40;53.30;;;;;;5086293;28;20687;-64
2021/05/08 10:50:42;;;;;;;2.10;1.90;;;20.10;52.70;;;;;;5096192;28;20625;-63
2021/05/08 10:53:10;;;;;;;2.40;2.30;;;19.90;56.00;;;;;;5085824;28;20626;-63
2021/05/08 10:55:51;;;;;;;2.77;2.57;;;19.60;53.10;;;;;;5078812;28;20678;-64
2021/05/08 10:58:28;;;;;;;4.17;2.50;;;19.60;55.20;;;;;;5080262;28;21199;-64
2021/05/08 11:00:56;;;;;;;3.10;2.80;;;19.60;54.10;;;;;;5080403;28;21454;-63
2021/05/08 11:03:24;;;;;;;2.40;2.30;;;19.50;54.70;;;;;;5082204;28;20744;-63
2021/05/08 11:05:52;;;;;;;2.10;2.00;;;19.40;51.90;;;;;;5080498;28;20630;-63
2021/05/08 11:08:43;;;;;;;2.90;2.70;;;19.30;50.40;;;;;;5073030;28;20996;-63
2021/05/08 11:11:12;;;;;;;2.10;2.00;;;18.80;52.50;;;;;;5080017;28;20737;-63
2021/05/08 11:13:55;;;;;;;2.43;2.23;;;19.20;53.90;;;;;;5085435;28;20652;-63
2021/05/08 11:16:24;;;;;;;2.07;1.97;;;19.40;54.90;;;;;;5085193;28;20737;-63
2021/05/08 11:18:51;;;;;;;3.33;2.13;;;19.50;51.80;;;;;;5082402;28;20626;-63
2021/05/08 11:21:43;;;;;;;2.37;2.20;;;19.60;52.70;;;;;;5086069;28;20721;-63
2021/05/08 11:24:14;;;;;;;2.20;2.10;;;19.90;55.20;;;;;;5081087;28;20697;-63
2021/05/08 11:26:45;;;;;;;1.87;1.77;;;20.30;53.40;;;;;;5086825;28;20623;-63
2021/05/08 11:29:16;;;;;;;1.97;1.80;;;20.70;51.80;;;;;;5078456;28;20670;-63
2021/05/08 11:31:45;;;;;;;2.70;2.50;;;20.80;51.00;;;;;;5079525;28;20631;-63
2021/05/08 11:34:15;;;;;;;2.53;2.10;;;20.70;50.90;;;;;;5085193;28;20993;-63
2021/05/08 11:36:51;;;;;;;2.60;2.27;;;20.50;52.00;;;;;;5086156;28;20634;-63
2021/05/08 11:39:19;;;;;;;2.10;2.00;;;20.20;50.50;;;;;;5085738;28;20725;-63
2021/05/08 11:41:48;;;;;;;2.60;2.40;;;20.10;52.60;;;;;;5082661;28;20675;-63
2021/05/08 11:44:36;;;;;;;2.10;2.00;;;20.10;52.30;;;;;;5084245;28;20634;-64
2021/05/08 11:47:03;;;;;;;2.20;2.00;;;20.30;54.50;;;;;;5084333;28;20704;-63
2021/05/08 11:49:34;;;;;;;2.13;1.90;;;20.10;53.70;;;;;;5083336;28;20698;-63
2021/05/08 11:52:02;;;;;;;2.10;2.00;;;20.10;53.40;;;;;;5088601;28;20622;-63
2021/05/08 11:54:31;;;;;;;2.00;1.90;;;20.00;54.20;;;;;;5082774;28;20633;-63
2021/05/08 11:56:58;;;;;;;2.43;2.33;;;19.90;52.80;;;;;;5072851;28;20653;-64
2021/05/08 11:59:32;;;;;;;2.10;2.00;;;20.20;53.00;;;;;;5079958;28;20734;-63
2021/05/08 12:02:12;;;;;;;2.03;1.87;;;20.40;52.20;;;;;;5075567;28;20694;-64
2021/05/08 12:04:49;;;;;;;2.07;1.97;;;20.40;54.10;;;;;;5076949;28;20634;-63
2021/05/08 12:07:26;;;;;;;2.20;2.00;;;20.30;50.50;;;;;;5080673;28;20713;-63
2021/05/08 12:10:11;;;;;;;2.30;2.13;;;20.80;49.50;;;;;;5084770;28;20687;-64
2021/05/08 12:12:46;;;;;;;2.33;2.13;;;20.90;50.90;;;;;;5075432;28;20714;-63
2021/05/08 12:15:13;;;;;;;1.80;1.70;;;20.60;51.10;;;;;;5079595;28;20629;-63
2021/05/08 12:17:40;;;;;;;2.57;2.37;;;20.60;50.40;;;;;;5086388;28;21263;-63
2021/05/08 12:20:09;;;;;;;2.17;2.07;;;20.60;51.70;;;;;;5084412;28;20637;-63
2021/05/08 12:22:36;;;;;;;2.40;1.90;;;20.70;50.50;;;;;;5080896;28;20682;-63
2021/05/08 12:25:03;;;;;;;2.27;2.17;;;20.90;50.70;;;;;;5080511;28;21003;-63
2021/05/08 12:27:30;;;;;;;2.37;2.23;;;20.80;51.20;;;;;;5084670;28;21166;-63
2021/05/08 12:29:58;;;;;;;2.27;2.17;;;20.90;50.20;;;;;;5092182;28;20730;-63
2021/05/08 12:32:25;;;;;;;2.97;2.63;;;20.70;50.10;;;;;;5087470;28;20630;-63
2021/05/08 12:34:53;;;;;;;1.77;1.67;;;20.70;50.90;;;;;;5084642;28;20979;-63
2021/05/08 12:37:19;;;;;;;2.03;1.93;;;20.80;52.80;;;;;;5084242;28;20650;-63
2021/05/08 12:39:47;;;;;;;1.80;1.73;;;21.10;52.00;;;;;;5083397;28;20634;-63
2021/05/08 12:42:13;;;;;;;2.10;2.00;;;21.20;51.90;;;;;;5086836;28;20708;-63
2021/05/08 12:44:44;;;;;;;1.90;1.80;;;21.20;51.90;;;;;;5083980;28;20630;-64
2021/05/08 12:47:17;;;;;;;2.27;2.07;;;21.50;50.50;;;;;;5082651;28;20645;-63
2021/05/08 12:50:10;;;;;;;2.30;2.10;;;21.70;51.20;;;;;;5085063;28;20686;-63